createdAt,value
2022-10-15T00:01:14.199Z,52.15
2022-10-15T00:03:43.333Z,53.97
2022-10-15T00:06:13.148Z,49.28
2022-10-15T00:08:41.020Z,46.38
2022-10-15T00:11:14.239Z,40.17
2022-10-15T00:13:41.759Z,36.13
2022-10-15T00:16:11.833Z,26.88
2022-10-15T00:18:39.321Z,25.80
2022-10-15T00:21:11.168Z,17.85
2022-10-15T00:23:38.507Z,21.25
2022-10-15T00:26:11.503Z,20.90
2022-10-15T00:28:38.667Z,15.85
2022-10-15T00:31:11.705Z,17.70
2022-10-15T00:33:39.885Z,9.82
2022-10-15T00:36:28.341Z,11.48
2022-10-15T00:38:55.686Z,14.27
2022-10-15T00:41:28.442Z,12.60
2022-10-15T00:43:58.601Z,13.52
2022-10-15T00:46:34.580Z,11.85
2022-10-15T00:49:21.766Z,9.75
2022-10-15T00:51:56.047Z,10.15
2022-10-15T00:54:24.255Z,11.15
2022-10-15T00:56:51.468Z,10.02
2022-10-15T00:59:23.334Z,11.45
2022-10-15T01:01:50.440Z,10.68
2022-10-15T01:04:18.985Z,10.07
2022-10-15T01:06:46.286Z,12.63
2022-10-15T01:09:14.054Z,12.10
2022-10-15T01:11:50.249Z,11.27
2022-10-15T01:14:47.246Z,11.75
2022-10-15T01:17:40.908Z,12.02
2022-10-15T01:20:52.482Z,8.75
2022-10-15T01:23:38.360Z,8.05
2022-10-15T01:26:40.535Z,11.25
2022-10-15T01:29:32.238Z,7.45
2022-10-15T01:31:59.093Z,9.23
2022-10-15T01:34:37.919Z,9.23
2022-10-15T01:37:13.838Z,10.40
2022-10-15T01:39:54.434Z,9.73
2022-10-15T01:42:31.586Z,11.98
2022-10-15T01:45:07.773Z,16.80
2022-10-15T01:48:00.584Z,13.65
2022-10-15T01:50:31.923Z,10.57
2022-10-15T01:53:01.004Z,10.07
2022-10-15T01:55:30.490Z,10.23
2022-10-15T01:58:00.411Z,14.60
2022-10-15T02:00:27.360Z,8.45
2022-10-15T02:02:59.769Z,8.88
2022-10-15T02:05:32.158Z,11.25
2022-10-15T02:08:14.627Z,15.10
2022-10-15T02:10:47.601Z,8.15
2022-10-15T02:13:19.907Z,7.60
2022-10-15T02:16:00.487Z,7.45
2022-10-15T02:19:22.403Z,9.43
2022-10-15T02:21:58.366Z,8.55
2022-10-15T02:24:35.356Z,9.45
2022-10-15T02:27:07.458Z,7.45
2022-10-15T02:29:37.955Z,7.10
2022-10-15T02:32:06.647Z,7.35
2022-10-15T02:34:34.544Z,11.25
2022-10-15T02:37:05.925Z,8.45
2022-10-15T02:42:02.275Z,11.32
2022-10-15T02:44:29.660Z,18.15
2022-10-15T02:46:59.148Z,24.45
2022-10-15T02:49:26.017Z,23.77
2022-10-15T02:51:53.711Z,28.67
2022-10-15T02:54:21.499Z,27.10
2022-10-15T02:56:48.386Z,15.02
2022-10-15T02:59:19.261Z,20.27
2022-10-15T03:01:46.746Z,21.77
2022-10-15T03:04:15.119Z,21.52
2022-10-15T03:06:42.239Z,11.32
2022-10-15T03:09:09.279Z,17.92
2022-10-15T03:11:38.781Z,12.73
2022-10-15T03:14:06.274Z,14.90
2022-10-15T03:16:34.495Z,9.80
2022-10-15T03:19:01.321Z,11.65
2022-10-15T03:21:31.924Z,11.55
2022-10-15T03:24:06.550Z,10.05
2022-10-15T03:26:33.733Z,10.75
2022-10-15T03:29:00.881Z,10.93
2022-10-15T03:31:53.954Z,7.15
2022-10-15T03:34:21.593Z,7.10
2022-10-15T03:36:48.999Z,7.70
2022-10-15T03:39:16.305Z,7.88
2022-10-15T03:44:14.297Z,9.83
2022-10-15T03:46:45.604Z,9.80
2022-10-15T03:49:12.801Z,10.30
2022-10-15T03:51:40.052Z,11.20
2022-10-15T03:54:11.524Z,11.80
2022-10-15T03:56:46.215Z,7.90
2022-10-15T03:59:23.975Z,9.65
2022-10-15T04:01:57.562Z,5.90
2022-10-15T04:04:24.697Z,5.72
2022-10-15T04:06:51.869Z,15.52
2022-10-15T04:09:20.018Z,20.52
2022-10-15T04:11:46.976Z,22.02
2022-10-15T04:14:14.834Z,14.80
2022-10-15T04:16:42.729Z,13.93
2022-10-15T04:19:15.030Z,12.98
2022-10-15T04:21:43.905Z,11.52
2022-10-15T04:24:24.527Z,8.60
2022-10-15T04:26:52.089Z,7.50
2022-10-15T04:29:19.545Z,7.38
2022-10-15T04:31:46.460Z,9.88
2022-10-15T04:34:13.353Z,8.18
2022-10-15T04:36:40.231Z,8.93
2022-10-15T04:39:14.591Z,7.13
2022-10-15T04:41:43.644Z,9.95
2022-10-15T04:44:15.702Z,9.85
2022-10-15T04:46:48.687Z,18.65
2022-10-15T04:49:41.877Z,9.60
2022-10-15T04:52:24.761Z,14.48
2022-10-15T04:55:04.815Z,14.48
2022-10-15T04:57:31.844Z,11.52
2022-10-15T04:59:58.766Z,14.57
2022-10-15T05:02:46.893Z,8.65
2022-10-15T05:05:25.133Z,14.18
2022-10-15T05:08:03.895Z,17.25
2022-10-15T05:10:35.017Z,13.05
2022-10-15T05:13:05.574Z,12.48
2022-10-15T05:15:34.981Z,10.90
2022-10-15T05:18:05.665Z,11.65
2022-10-15T05:20:41.542Z,8.13
2022-10-15T05:23:14.906Z,11.77
2022-10-15T05:25:53.170Z,23.23
2022-10-15T05:28:23.977Z,27.00
2022-10-15T05:30:50.927Z,21.55
2022-10-15T05:33:17.985Z,22.02
2022-10-15T05:35:45.358Z,17.52
2022-10-15T05:38:12.206Z,13.57
2022-10-15T05:40:41.010Z,20.60
2022-10-15T05:43:16.377Z,28.17
2022-10-15T05:45:43.509Z,30.10
2022-10-15T05:48:10.398Z,26.73
2022-10-15T05:50:37.872Z,18.52
2022-10-15T05:53:08.795Z,16.43
2022-10-15T05:55:45.367Z,18.95
2022-10-15T05:58:12.226Z,20.48
2022-10-15T06:00:41.955Z,22.08
2022-10-15T06:03:13.153Z,17.25
2022-10-15T06:05:40.717Z,21.38
2022-10-15T06:08:07.713Z,22.30
2022-10-15T06:10:38.012Z,24.88
2022-10-15T06:13:05.507Z,21.95
2022-10-15T06:15:33.818Z,25.65
2022-10-15T06:18:01.839Z,31.10
2022-10-15T06:20:28.650Z,28.92
2022-10-15T06:23:00.019Z,26.45
2022-10-15T06:25:28.091Z,24.13
2022-10-15T06:27:55.326Z,32.80
2022-10-15T06:30:26.212Z,26.20
2022-10-15T06:32:54.520Z,29.27
2022-10-15T06:35:22.822Z,28.88
2022-10-15T06:37:50.184Z,38.30
2022-10-15T06:40:18.642Z,37.42
2022-10-15T06:42:51.115Z,29.58
2022-10-15T06:45:22.836Z,29.17
2022-10-15T06:47:53.916Z,30.05
2022-10-15T06:50:27.590Z,29.90
2022-10-15T06:55:31.654Z,28.73
2022-10-15T06:58:00.050Z,23.10
2022-10-15T07:00:30.130Z,28.93
2022-10-15T07:03:03.210Z,36.13
2022-10-15T07:05:30.874Z,39.53
2022-10-15T07:07:58.288Z,28.48
2022-10-15T07:10:26.748Z,30.30
2022-10-15T07:12:55.062Z,31.13
2022-10-15T07:15:22.501Z,28.55
2022-10-15T07:17:50.854Z,33.40
2022-10-15T07:20:21.804Z,26.10
2022-10-15T07:22:50.313Z,23.83
2022-10-15T07:25:17.501Z,23.00
2022-10-15T07:27:45.019Z,30.70
2022-10-15T07:30:12.620Z,34.95
2022-10-15T07:32:39.670Z,33.10
2022-10-15T07:35:07.731Z,27.85
2022-10-15T07:37:35.585Z,37.17
2022-10-15T07:40:02.339Z,28.40
2022-10-15T07:42:29.231Z,32.60
2022-10-15T07:44:56.345Z,29.95
2022-10-15T07:47:23.774Z,26.70
2022-10-15T07:49:50.899Z,32.83
2022-10-15T07:52:17.738Z,31.13
2022-10-15T07:54:44.835Z,26.08
2022-10-15T07:57:17.532Z,44.15
2022-10-15T07:59:44.692Z,23.77
2022-10-15T08:02:16.890Z,32.83
2022-10-15T08:04:43.837Z,34.30
2022-10-15T08:07:12.135Z,30.42
2022-10-15T08:09:40.090Z,33.53
2022-10-15T08:12:07.574Z,36.72
2022-10-15T08:14:35.781Z,32.33
2022-10-15T08:17:06.689Z,34.22
2022-10-15T08:19:33.628Z,25.83
2022-10-15T08:22:00.440Z,36.15
2022-10-15T08:24:27.550Z,46.15
2022-10-15T08:26:54.479Z,26.83
2022-10-15T08:29:21.336Z,27.75
2022-10-15T08:31:49.391Z,28.95
2022-10-15T08:34:21.161Z,27.05
2022-10-15T08:36:47.944Z,23.38
2022-10-15T08:39:14.995Z,25.75
2022-10-15T08:41:47.997Z,19.90
2022-10-15T08:44:41.878Z,22.73
2022-10-15T08:47:26.360Z,19.70
2022-10-15T08:49:57.721Z,24.38
2022-10-15T08:52:47.275Z,20.00
2022-10-15T08:55:20.208Z,26.25
2022-10-15T08:58:06.540Z,21.02
2022-10-15T09:00:44.053Z,18.58
2022-10-15T09:03:39.035Z,20.52
2022-10-15T09:06:22.281Z,21.88
2022-10-15T09:09:28.541Z,17.25
2022-10-15T09:12:15.547Z,16.97
2022-10-15T09:14:44.440Z,16.95
2022-10-15T09:17:26.155Z,16.42
2022-10-15T09:22:30.905Z,20.33
2022-10-15T09:24:58.482Z,16.80
2022-10-15T09:27:33.993Z,13.85
2022-10-15T09:30:04.660Z,13.23
2022-10-15T09:32:40.448Z,15.50
2022-10-15T09:35:20.757Z,11.63
2022-10-15T09:38:18.894Z,16.02
2022-10-15T09:41:01.157Z,11.73
2022-10-15T09:43:36.711Z,6.60
2022-10-15T09:46:04.399Z,10.90
2022-10-15T09:48:44.528Z,9.93
2022-10-15T09:51:35.329Z,12.68
2022-10-15T09:54:18.730Z,7.37
2022-10-15T09:56:54.263Z,13.77
2022-10-15T09:59:22.727Z,14.60
2022-10-15T10:02:02.740Z,8.88
2022-10-15T10:04:32.470Z,12.18
2022-10-15T10:07:04.605Z,10.88
2022-10-15T10:09:39.044Z,10.65
2022-10-15T10:12:20.804Z,13.52
2022-10-15T10:14:57.801Z,6.85
2022-10-15T10:17:26.719Z,8.75
2022-10-15T10:20:08.766Z,9.75
2022-10-15T10:25:35.290Z,6.32
2022-10-15T10:28:14.389Z,10.85
2022-10-15T10:30:56.568Z,13.48
2022-10-15T10:33:32.605Z,8.65
2022-10-15T10:36:01.978Z,12.77
2022-10-15T10:38:38.890Z,9.02
2022-10-15T10:41:09.929Z,15.80
2022-10-15T10:43:52.147Z,11.52
2022-10-15T10:46:20.535Z,8.25
2022-10-15T10:48:52.856Z,15.63
2022-10-15T10:51:27.314Z,9.55
2022-10-15T10:54:14.507Z,8.10
2022-10-15T10:56:44.679Z,9.38
2022-10-15T10:59:40.934Z,13.60
2022-10-15T11:02:12.389Z,9.88
2022-10-15T11:04:40.674Z,8.73
2022-10-15T11:07:26.273Z,13.40
2022-10-15T11:10:18.326Z,6.18
2022-10-15T11:13:16.477Z,6.30
2022-10-15T11:16:01.170Z,8.82
2022-10-15T11:18:47.100Z,6.55
2022-10-15T11:21:28.266Z,7.60
2022-10-15T11:24:14.721Z,6.35
2022-10-15T11:27:10.543Z,9.07
2022-10-15T11:30:09.397Z,10.88
2022-10-15T11:33:09.001Z,8.13
2022-10-15T11:35:53.936Z,6.10
2022-10-15T11:38:44.167Z,6.95
2022-10-15T11:41:25.661Z,7.38
2022-10-15T11:44:03.158Z,7.10
2022-10-15T11:46:44.118Z,7.78
2022-10-15T11:49:13.417Z,8.85
2022-10-15T11:52:00.877Z,8.68
2022-10-15T11:54:47.754Z,8.80
2022-10-15T11:57:20.540Z,15.98
2022-10-15T11:59:55.863Z,10.77
2022-10-15T12:02:36.662Z,20.73
2022-10-15T12:05:09.914Z,10.52
2022-10-15T12:07:42.901Z,8.57
2022-10-15T12:10:26.883Z,10.40
2022-10-15T12:13:05.475Z,13.82
2022-10-15T12:15:59.755Z,10.07
2022-10-15T12:18:39.092Z,15.90
2022-10-15T12:21:37.898Z,16.60
2022-10-15T12:24:26.098Z,16.15
2022-10-15T12:26:53.325Z,12.00
2022-10-15T12:29:25.696Z,9.02
2022-10-15T12:31:57.033Z,16.00
2022-10-15T12:34:28.784Z,10.77
2022-10-15T12:37:05.879Z,7.82
2022-10-15T12:39:51.190Z,11.77
2022-10-15T12:42:31.363Z,12.55
2022-10-15T12:45:00.749Z,13.95
2022-10-15T12:47:46.041Z,7.13
2022-10-15T12:50:19.131Z,8.20
2022-10-15T12:52:55.533Z,14.88
2022-10-15T12:55:37.143Z,9.63
2022-10-15T12:58:33.962Z,11.50
2022-10-15T13:01:13.201Z,10.32
2022-10-15T13:03:50.239Z,11.15
2022-10-15T13:06:20.684Z,13.35
2022-10-15T13:09:05.289Z,10.25
2022-10-15T13:14:54.525Z,6.18
2022-10-15T13:17:23.014Z,7.00
2022-10-15T13:19:59.219Z,6.95
2022-10-15T13:22:29.866Z,8.32
2022-10-15T13:24:57.823Z,7.22
2022-10-15T13:27:30.864Z,8.02
2022-10-15T13:30:04.265Z,5.07
2022-10-15T13:32:35.789Z,5.70
2022-10-15T13:35:10.884Z,5.35
2022-10-15T13:37:39.779Z,4.57
2022-10-15T13:40:08.449Z,5.95
2022-10-15T13:42:35.575Z,8.82
2022-10-15T13:45:04.622Z,10.15
2022-10-15T13:47:35.997Z,4.43
2022-10-15T13:50:25.006Z,6.57
2022-10-15T13:52:52.152Z,6.55
2022-10-15T13:55:41.878Z,11.00
2022-10-15T13:58:22.316Z,8.80
2022-10-15T14:00:57.947Z,9.95
2022-10-15T14:03:26.022Z,13.82
2022-10-15T14:05:54.793Z,6.43
2022-10-15T14:08:21.583Z,6.63
2022-10-15T14:10:50.023Z,8.75
2022-10-15T14:13:17.603Z,7.35
2022-10-15T14:15:50.907Z,7.65
2022-10-15T14:18:28.643Z,6.45
2022-10-15T14:20:55.562Z,10.43
2022-10-15T14:23:25.248Z,10.43
2022-10-15T14:25:54.672Z,21.35
2022-10-15T14:28:23.834Z,17.50
2022-10-15T14:30:51.821Z,18.33
2022-10-15T14:33:36.964Z,14.15
2022-10-15T14:36:09.590Z,15.93
2022-10-15T14:38:36.711Z,14.95
2022-10-15T14:41:18.210Z,15.00
2022-10-15T14:46:18.955Z,41.10
2022-10-15T14:48:46.732Z,32.35
2022-10-15T14:51:24.988Z,28.77
2022-10-15T14:53:53.239Z,24.02
2022-10-15T14:56:24.179Z,26.35
2022-10-15T14:58:56.647Z,37.35
2022-10-15T15:01:24.535Z,29.35
2022-10-15T15:03:56.145Z,34.30
2022-10-15T15:06:23.203Z,27.08
2022-10-15T15:08:50.900Z,23.02
2022-10-15T15:11:22.729Z,25.77
2022-10-15T15:13:49.991Z,27.08
2022-10-15T15:16:18.869Z,38.70
2022-10-15T15:18:48.577Z,33.58
2022-10-15T15:21:25.044Z,31.75
2022-10-15T15:23:52.526Z,35.15
2022-10-15T15:26:19.530Z,55.28
2022-10-15T15:28:46.395Z,51.65
2022-10-15T15:31:17.390Z,65.32
2022-10-15T15:33:46.003Z,72.85
2022-10-15T15:36:20.812Z,80.90
2022-10-15T15:38:51.994Z,92.32
2022-10-15T15:41:22.125Z,206.85
2022-10-15T15:43:49.586Z,205.57
2022-10-15T15:46:17.202Z,200.13
2022-10-15T15:48:44.597Z,167.77
2022-10-15T15:51:22.343Z,182.27
2022-10-15T15:53:49.409Z,161.35
2022-10-15T15:56:17.124Z,145.70
2022-10-15T15:58:44.138Z,150.98
2022-10-15T16:01:11.616Z,133.55
2022-10-15T16:03:38.520Z,122.65
2022-10-15T16:06:07.317Z,128.93
2022-10-15T16:08:35.509Z,115.75
2022-10-15T16:11:04.276Z,92.78
2022-10-15T16:13:31.366Z,100.72
2022-10-15T16:15:59.021Z,101.80
2022-10-15T16:18:26.391Z,107.63
2022-10-15T16:20:55.294Z,110.20
2022-10-15T16:23:22.600Z,113.85
2022-10-15T16:25:49.643Z,109.32
2022-10-15T16:28:17.447Z,107.75
2022-10-15T16:30:45.237Z,97.97
2022-10-15T16:33:13.433Z,109.18
2022-10-15T16:35:44.433Z,105.60
2022-10-15T16:38:12.835Z,110.57
2022-10-15T16:40:40.779Z,128.45
2022-10-15T16:43:11.971Z,143.43
2022-10-15T16:45:57.535Z,161.02
2022-10-15T16:48:30.241Z,152.85
2022-10-15T16:51:14.357Z,121.28
2022-10-15T16:53:45.223Z,110.15
2022-10-15T16:56:26.581Z,110.55
2022-10-15T16:58:58.339Z,110.07
2022-10-15T17:01:30.052Z,98.97
2022-10-15T17:04:01.343Z,80.95
2022-10-15T17:06:30.301Z,75.05
2022-10-15T17:08:59.916Z,82.13
2022-10-15T17:11:29.567Z,83.75
2022-10-15T17:14:00.311Z,69.28
2022-10-15T17:16:30.596Z,71.47
2022-10-15T17:18:59.528Z,70.72
2022-10-15T17:21:30.005Z,72.28
2022-10-15T17:24:00.871Z,60.33
2022-10-15T17:26:33.229Z,71.85
2022-10-15T17:29:01.352Z,115.07
2022-10-15T17:31:29.003Z,120.95
2022-10-15T17:33:58.449Z,112.72
2022-10-15T17:36:28.441Z,96.47
2022-10-15T17:38:57.434Z,81.00
2022-10-15T17:41:26.948Z,104.07
2022-10-15T17:43:54.808Z,86.82
2022-10-15T17:46:25.225Z,86.18
2022-10-15T17:48:56.092Z,74.50
2022-10-15T17:51:26.874Z,77.57
2022-10-15T17:53:58.293Z,63.45
2022-10-15T17:56:28.444Z,62.50
2022-10-15T17:59:00.028Z,69.82
2022-10-15T18:01:56.075Z,64.13
2022-10-15T18:04:21.315Z,83.72
2022-10-15T18:06:48.720Z,102.85
2022-10-15T18:09:26.070Z,97.60
2022-10-15T18:11:56.483Z,93.03
2022-10-15T18:14:28.442Z,81.07
2022-10-15T18:16:55.389Z,65.07
2022-10-15T18:19:22.374Z,60.95
2022-10-15T18:21:50.096Z,51.40
2022-10-15T18:24:22.299Z,43.20
2022-10-15T18:26:51.140Z,38.88
2022-10-15T18:29:18.931Z,33.80
2022-10-15T18:31:47.200Z,30.65
2022-10-15T18:34:14.919Z,37.00
2022-10-15T18:36:43.565Z,36.65
2022-10-15T18:39:11.223Z,28.85
2022-10-15T18:41:40.145Z,27.85
2022-10-15T18:44:13.129Z,31.20
2022-10-15T18:46:42.143Z,36.10
2022-10-15T18:49:09.651Z,31.80
2022-10-15T18:51:37.293Z,26.98
2022-10-15T18:54:06.901Z,38.50
2022-10-15T18:56:33.855Z,38.40
2022-10-15T18:59:00.707Z,34.97
2022-10-15T19:01:30.713Z,32.70
2022-10-15T19:04:00.507Z,29.90
2022-10-15T19:06:30.372Z,34.40
2022-10-15T19:08:58.658Z,30.02
2022-10-15T19:11:29.562Z,32.65
2022-10-15T19:13:59.412Z,28.88
2022-10-15T19:16:27.075Z,32.72
2022-10-15T19:18:58.820Z,24.25
2022-10-15T19:21:26.085Z,31.35
2022-10-15T19:23:54.333Z,23.02
2022-10-15T19:26:21.903Z,25.30
2022-10-15T19:28:52.053Z,26.90
2022-10-15T19:31:51.980Z,24.73
2022-10-15T19:34:19.067Z,18.52
2022-10-15T19:36:50.949Z,23.35
2022-10-15T19:39:22.937Z,17.65
2022-10-15T19:41:52.538Z,18.73
2022-10-15T19:44:25.274Z,22.05
2022-10-15T19:46:53.812Z,22.45
2022-10-15T19:49:21.027Z,20.80
2022-10-15T19:51:49.433Z,23.75
2022-10-15T19:54:18.159Z,23.70
2022-10-15T19:56:45.927Z,28.88
2022-10-15T19:59:13.666Z,35.10
2022-10-15T20:01:41.165Z,23.40
2022-10-15T20:04:08.341Z,29.42
2022-10-15T20:06:38.359Z,22.65
2022-10-15T20:09:07.283Z,20.88
2022-10-15T20:11:35.630Z,28.55
2022-10-15T20:14:04.052Z,23.00
2022-10-15T20:16:33.198Z,17.40
2022-10-15T20:19:02.889Z,15.88
2022-10-15T20:21:29.805Z,19.60
2022-10-15T20:23:57.323Z,14.98
2022-10-15T20:26:25.729Z,27.45
2022-10-15T20:28:56.574Z,13.70
2022-10-15T20:31:28.792Z,19.58
2022-10-15T20:36:27.513Z,16.73
2022-10-15T20:38:57.293Z,14.48
2022-10-15T20:41:24.621Z,15.27
2022-10-15T20:43:54.975Z,15.27
2022-10-15T20:46:27.922Z,16.70
2022-10-15T20:48:58.898Z,15.88
2022-10-15T20:51:28.542Z,16.23
2022-10-15T20:53:58.900Z,17.13
2022-10-15T20:56:26.053Z,13.50
2022-10-15T20:58:53.321Z,13.75
2022-10-15T21:01:20.291Z,13.93
2022-10-15T21:03:47.184Z,14.40
2022-10-15T21:06:14.214Z,17.13
2022-10-15T21:08:41.061Z,12.65
2022-10-15T21:11:09.452Z,16.25
2022-10-15T21:13:36.425Z,12.75
2022-10-15T21:16:06.876Z,14.93
2022-10-15T21:18:35.346Z,12.38
2022-10-15T21:21:04.307Z,17.92
2022-10-15T21:23:32.162Z,13.63
2022-10-15T21:26:06.928Z,18.02
2022-10-15T21:28:34.680Z,18.00
2022-10-15T21:31:10.036Z,11.23
2022-10-15T21:33:37.423Z,15.23
2022-10-15T21:36:22.221Z,13.35
2022-10-15T21:38:56.770Z,13.18
2022-10-15T21:41:25.139Z,10.95
2022-10-15T21:43:52.057Z,27.30
2022-10-15T21:46:19.366Z,15.25
2022-10-15T21:48:46.993Z,16.02
2022-10-15T21:51:20.346Z,15.35
2022-10-15T21:53:47.856Z,14.95
2022-10-15T21:56:14.962Z,19.42
2022-10-15T21:58:42.985Z,21.42
2022-10-15T22:01:24.424Z,11.77
2022-10-15T22:03:53.991Z,15.40
2022-10-15T22:06:21.177Z,13.98
2022-10-15T22:08:48.319Z,15.38
2022-10-15T22:11:17.952Z,21.02
2022-10-15T22:13:47.068Z,12.23
2022-10-15T22:16:15.208Z,16.58
2022-10-15T22:18:42.204Z,16.08
2022-10-15T22:21:15.332Z,19.30
2022-10-15T22:23:54.000Z,10.98
2022-10-15T22:26:25.292Z,15.63
2022-10-15T22:28:53.545Z,12.02
2022-10-15T22:31:20.515Z,22.05
2022-10-15T22:33:48.214Z,14.48
2022-10-15T22:36:23.472Z,18.40
2022-10-15T22:39:05.107Z,13.40
2022-10-15T22:41:40.069Z,10.35
2022-10-15T22:44:08.720Z,13.15
2022-10-15T22:46:37.742Z,12.52
2022-10-15T22:49:06.298Z,12.48
2022-10-15T22:51:34.033Z,16.73
2022-10-15T22:54:01.140Z,13.30
2022-10-15T22:56:29.040Z,13.32
2022-10-15T22:58:57.170Z,10.77
2022-10-15T23:01:27.479Z,11.60
2022-10-15T23:03:57.239Z,12.20
2022-10-15T23:06:25.776Z,13.95
2022-10-15T23:08:53.374Z,11.77
2022-10-15T23:11:35.791Z,13.60
2022-10-15T23:14:05.863Z,12.35
2022-10-15T23:16:35.549Z,11.40
2022-10-15T23:19:07.813Z,11.27
2022-10-15T23:21:56.472Z,10.85
2022-10-15T23:24:26.010Z,14.32
2022-10-15T23:26:53.507Z,14.07
2022-10-15T23:29:23.422Z,15.10
2022-10-15T23:31:51.234Z,13.00
2022-10-15T23:34:28.597Z,10.35
2022-10-15T23:36:55.566Z,10.45
2022-10-15T23:39:25.866Z,11.82
2022-10-15T23:41:53.542Z,12.73
2022-10-15T23:44:20.679Z,13.65
2022-10-15T23:46:47.631Z,8.30
2022-10-15T23:49:14.485Z,9.82
2022-10-15T23:51:41.740Z,17.05
2022-10-15T23:54:17.746Z,8.90
2022-10-15T23:56:46.263Z,10.52
2022-10-15T23:59:13.413Z,11.80
